Time;durP1;ratioP1;P1;durP2;ratioP2;P2;SDS_P1;SDS_P2;PMS_P1;PMS_P2;Temp;Humidity;BMP_temperature;BMP_pressure;BME280_temperature;BME280_humidity;BME280_pressure;Samples;Min_cycle;Max_cycle;Signal;HPM_P1;HPM_P2
2022/01/30 00:02:15;;;;;;;25.20;5.30;;;8.00;99.90;;;;;;4994165;28;20026;-81
2022/01/30 00:04:41;;;;;;;27.42;5.70;;;7.30;99.90;;;;;;5001613;28;20037;-84
2022/01/30 00:07:06;;;;;;;23.55;5.22;;;7.20;99.90;;;;;;4996043;28;20045;-81
2022/01/30 00:09:32;;;;;;;25.50;4.97;;;7.20;99.90;;;;;;5000588;28;20034;-83
2022/01/30 00:12:01;;;;;;;31.38;5.32;;;7.20;99.90;;;;;;5012746;27;20037;-81
2022/01/30 00:14:30;;;;;;;30.27;5.53;;;7.20;99.90;;;;;;5009721;28;20436;-81
2022/01/30 00:17:07;;;;;;;33.33;6.70;;;7.20;99.90;;;;;;4989962;28;20105;-80
2022/01/30 00:19:39;;;;;;;34.95;7.45;;;7.50;99.90;;;;;;4995425;28;20034;-82
2022/01/30 00:22:25;;;;;;;28.70;5.53;;;7.20;99.90;;;;;;4989789;28;20420;-80
2022/01/30 00:24:57;;;;;;;25.63;5.97;;;7.00;99.90;;;;;;4993688;28;20029;-80
2022/01/30 00:27:44;;;;;;;20.50;4.93;;;6.90;99.90;;;;;;4996903;28;20033;-81
2022/01/30 00:30:13;;;;;;;20.13;3.88;;;7.10;99.90;;;;;;5074974;28;20049;-80
2022/01/30 00:32:39;;;;;;;21.30;4.68;;;6.50;99.90;;;;;;4999189;28;20050;-81
2022/01/30 00:35:05;;;;;;;18.92;3.22;;;6.40;99.90;;;;;;4975086;28;20149;-82
2022/01/30 00:37:31;;;;;;;18.73;3.20;;;6.40;99.90;;;;;;4986922;28;20436;-81
2022/01/30 00:39:56;;;;;;;26.70;4.53;;;6.30;99.90;;;;;;4984183;28;20037;-81
2022/01/30 00:42:23;;;;;;;24.85;4.18;;;6.30;99.90;;;;;;4988869;28;20030;-82
2022/01/30 00:44:49;;;;;;;32.17;5.93;;;6.70;99.90;;;;;;4992681;28;20037;-82
2022/01/30 00:47:15;;;;;;;21.65;4.25;;;6.20;99.90;;;;;;4990320;28;20056;-81
2022/01/30 00:49:41;;;;;;;32.92;6.25;;;6.20;99.90;;;;;;5001315;28;20053;-82
2022/01/30 00:52:10;;;;;;;35.58;6.07;;;6.20;99.90;;;;;;4988798;28;20401;-82
2022/01/30 00:54:36;;;;;;;30.45;5.90;;;6.20;99.90;;;;;;4987563;28;20073;-81
2022/01/30 00:57:02;;;;;;;30.42;5.50;;;6.30;99.90;;;;;;4977011;28;20058;-81
2022/01/30 00:59:28;;;;;;;34.17;5.88;;;6.30;99.90;;;;;;4997705;28;20037;-82
2022/01/30 01:01:53;;;;;;;44.55;7.22;;;6.30;99.90;;;;;;5053916;28;20029;-80
2022/01/30 01:04:19;;;;;;;39.58;7.53;;;6.20;99.90;;;;;;4991795;28;20649;-80
2022/01/30 01:06:49;;;;;;;32.80;6.43;;;6.30;99.90;;;;;;4985392;28;20034;-80
2022/01/30 01:09:15;;;;;;;29.85;6.30;;;6.40;99.90;;;;;;4985178;28;20101;-81
2022/01/30 01:25:16;;;;;;;31.90;8.25;;;6.30;99.90;;;;;;5014116;28;20044;-81
2022/01/30 01:27:42;;;;;;;38.97;6.97;;;6.30;99.90;;;;;;4991526;28;20044;-80
2022/01/30 01:30:08;;;;;;;28.30;5.00;;;6.40;99.90;;;;;;5002738;28;20053;-80
2022/01/30 01:32:34;;;;;;;34.15;6.47;;;6.50;99.90;;;;;;5004430;28;20115;-79
2022/01/30 01:35:00;;;;;;;26.77;5.35;;;6.50;99.90;;;;;;5003623;28;20045;-81
2022/01/30 01:37:26;;;;;;;32.60;6.57;;;6.50;99.90;;;;;;5000402;28;20106;-82
2022/01/30 01:39:52;;;;;;;32.00;6.68;;;6.60;99.90;;;;;;4994114;28;20037;-81
2022/01/30 01:42:17;;;;;;;47.40;8.10;;;7.10;99.90;;;;;;4970576;28;20101;-81
2022/01/30 01:44:48;;;;;;;37.10;5.65;;;7.40;99.90;;;;;;5010122;27;20045;-81
2022/01/30 01:47:17;;;;;;;28.60;6.38;;;7.40;99.90;;;;;;5005488;28;20084;-82
2022/01/30 01:49:43;;;;;;;29.63;7.20;;;6.80;99.90;;;;;;4987376;28;20128;-81
2022/01/30 01:52:21;;;;;;;29.38;6.13;;;7.00;99.90;;;;;;4987284;28;20048;-82
2022/01/30 01:54:50;;;;;;;31.75;5.97;;;6.60;99.90;;;;;;4999782;28;20078;-81
2022/01/30 01:57:16;;;;;;;34.55;6.22;;;6.60;99.90;;;;;;4990688;28;20045;-81
2022/01/30 01:59:42;;;;;;;32.80;5.93;;;6.60;99.90;;;;;;5002891;28;20087;-80
2022/01/30 02:02:08;;;;;;;27.58;5.70;;;6.60;99.90;;;;;;4976058;28;21619;-82
2022/01/30 02:04:34;;;;;;;35.33;7.72;;;7.30;99.90;;;;;;5004712;28;20124;-82
2022/01/30 02:07:21;;;;;;;40.17;7.15;;;6.80;99.90;;;;;;5006443;27;20071;-81
2022/01/30 02:09:46;;;;;;;32.20;6.63;;;7.30;99.90;;;;;;5001175;28;20072;-82
2022/01/30 02:12:18;;;;;;;37.45;7.85;;;7.10;99.90;;;;;;4997412;28;20068;-82
2022/01/30 02:15:07;;;;;;;37.17;8.82;;;6.70;99.90;;;;;;4982132;28;20072;-81
2022/01/30 02:25:56;;;;;;;28.98;6.13;;;6.60;99.90;;;;;;4990249;28;20044;-81
2022/01/30 02:28:21;;;;;;;32.33;6.50;;;6.80;99.90;;;;;;4977689;28;20041;-81
2022/01/30 02:30:58;;;;;;;28.58;6.05;;;6.40;99.90;;;;;;4987178;28;20029;-82
2022/01/30 02:33:23;;;;;;;28.50;7.07;;;6.40;99.90;;;;;;4990769;28;20128;-82
2022/01/30 02:35:49;;;;;;;27.00;6.13;;;6.40;99.90;;;;;;5005623;28;20143;-83
2022/01/30 02:38:17;;;;;;;38.38;7.40;;;7.00;99.90;;;;;;5009594;28;20029;-81
2022/01/30 02:40:45;;;;;;;29.25;5.50;;;6.40;99.90;;;;;;4982989;28;20034;-81
2022/01/30 02:43:13;;;;;;;28.42;5.93;;;6.50;99.90;;;;;;5000110;28;20046;-82
2022/01/30 02:45:46;;;;;;;34.92;5.50;;;6.50;99.90;;;;;;5009398;28;20116;-81
2022/01/30 02:48:17;;;;;;;36.60;7.05;;;6.50;99.90;;;;;;5006051;28;20049;-83
2022/01/30 02:53:14;;;;;;;38.75;6.47;;;6.40;99.90;;;;;;4998054;28;20053;-81
2022/01/30 02:55:40;;;;;;;35.22;7.85;;;6.90;99.90;;;;;;4984156;28;20447;-81
2022/01/30 02:58:05;;;;;;;29.40;7.07;;;6.50;99.90;;;;;;4983531;28;20030;-81
2022/01/30 03:00:31;;;;;;;37.25;6.65;;;6.60;99.90;;;;;;5020265;28;20633;-81
2022/01/30 03:02:57;;;;;;;46.35;9.07;;;6.50;99.90;;;;;;5002954;28;20022;-82
2022/01/30 03:05:23;;;;;;;34.28;7.55;;;6.60;99.90;;;;;;4975361;28;20485;-83
2022/01/30 03:07:49;;;;;;;37.70;7.22;;;6.80;99.90;;;;;;5009554;28;20478;-81
2022/01/30 03:10:15;;;;;;;33.67;6.82;;;6.70;99.90;;;;;;4986247;28;20041;-82
2022/01/30 03:12:41;;;;;;;40.33;8.43;;;6.70;99.90;;;;;;4983074;28;20167;-82
2022/01/30 03:15:07;;;;;;;35.88;6.53;;;6.50;99.90;;;;;;4992415;28;20159;-81
2022/01/30 03:17:33;;;;;;;38.97;6.47;;;6.40;99.90;;;;;;4991480;28;20038;-82
2022/01/30 03:19:59;;;;;;;34.22;7.50;;;6.50;99.90;;;;;;5010419;28;20112;-81
2022/01/30 03:22:26;;;;;;;46.58;8.80;;;6.50;99.90;;;;;;5010430;28;20052;-81
2022/01/30 03:24:52;;;;;;;44.35;8.82;;;6.50;99.90;;;;;;4974419;28;20048;-83
2022/01/30 03:27:17;;;;;;;43.55;9.88;;;7.20;99.90;;;;;;5005847;28;20033;-80
2022/01/30 03:29:50;;;;;;;46.08;10.15;;;6.60;99.90;;;;;;4993668;28;20073;-80
2022/01/30 03:32:17;;;;;;;46.70;8.15;;;6.80;99.90;;;;;;5005455;28;20105;-81
2022/01/30 03:34:43;;;;;;;37.78;7.05;;;6.80;99.90;;;;;;4975439;28;20507;-81
2022/01/30 03:37:09;;;;;;;45.90;7.35;;;6.60;99.90;;;;;;5014596;23;20124;-84
2022/01/30 03:39:34;;;;;;;53.08;8.93;;;6.60;99.90;;;;;;4985919;28;20097;-80
2022/01/30 03:42:00;;;;;;;36.35;8.20;;;6.70;99.90;;;;;;4970602;28;20058;-81
2022/01/30 03:44:26;;;;;;;45.25;9.15;;;6.60;99.90;;;;;;5004390;28;20072;-81
2022/01/30 03:46:51;;;;;;;37.63;8.20;;;6.70;99.90;;;;;;4979687;28;20117;-81
2022/01/30 03:49:17;;;;;;;42.75;8.95;;;6.70;99.90;;;;;;4971257;28;20053;-80
2022/01/30 03:51:43;;;;;;;39.13;8.05;;;6.60;99.90;;;;;;4972717;28;20065;-81
2022/01/30 03:54:08;;;;;;;36.28;6.80;;;6.60;99.90;;;;;;5001454;28;20026;-80
2022/01/30 03:56:34;;;;;;;35.78;6.90;;;6.60;99.90;;;;;;4958759;28;20053;-81
2022/01/30 03:59:00;;;;;;;40.42;7.45;;;6.80;99.90;;;;;;4988785;28;20042;-81
2022/01/30 04:01:25;;;;;;;38.55;8.55;;;7.10;99.90;;;;;;4945603;28;20134;-81
2022/01/30 04:03:51;;;;;;;36.10;7.43;;;7.10;99.90;;;;;;4959328;28;20034;-80
2022/01/30 04:06:17;;;;;;;47.78;7.40;;;6.90;99.90;;;;;;4981165;28;20426;-83
2022/01/30 04:08:44;;;;;;;53.50;8.48;;;6.70;99.90;;;;;;4973225;28;20049;-82
2022/01/30 04:11:10;;;;;;;44.33;7.78;;;6.70;99.90;;;;;;4995298;28;20132;-81
2022/01/30 04:13:35;;;;;;;29.48;6.82;;;6.80;99.90;;;;;;5019006;28;20111;-81
2022/01/30 04:16:01;;;;;;;33.13;7.35;;;6.80;99.90;;;;;;4972644;28;20093;-82
2022/01/30 04:18:30;;;;;;;39.65;7.75;;;6.90;99.90;;;;;;4993280;28;20042;-81
2022/01/30 04:20:56;;;;;;;48.33;8.00;;;6.90;99.70;;;;;;4977219;28;20136;-83
2022/01/30 04:23:22;;;;;;;39.75;8.70;;;6.90;99.90;;;;;;4969855;28;20156;-82
2022/01/30 04:25:48;;;;;;;46.42;9.32;;;6.90;99.70;;;;;;4980464;28;20046;-80
2022/01/30 04:28:14;;;;;;;36.97;7.57;;;6.90;99.80;;;;;;4985095;28;20034;-81
2022/01/30 04:30:40;;;;;;;42.05;8.90;;;6.80;99.70;;;;;;5057940;28;20662;-82
2022/01/30 04:33:06;;;;;;;56.50;10.32;;;6.90;99.70;;;;;;4999577;28;20033;-80
2022/01/30 04:35:32;;;;;;;45.75;9.45;;;6.90;99.50;;;;;;4975861;28;20034;-85
2022/01/30 05:09:50;;;;;;;41.63;9.13;;;6.80;98.10;;;;;;4979662;28;20203;-81
2022/01/30 05:12:16;;;;;;;43.78;8.15;;;6.80;98.20;;;;;;4974606;28;20042;-84
2022/01/30 05:14:42;;;;;;;37.85;7.65;;;6.80;98.00;;;;;;4971280;28;20050;-85
2022/01/30 05:17:08;;;;;;;40.17;7.68;;;6.70;98.20;;;;;;4976797;28;20034;-84
2022/01/30 05:19:34;;;;;;;50.70;9.43;;;6.70;98.10;;;;;;4984839;28;20026;-81
2022/01/30 05:22:00;;;;;;;32.78;7.60;;;6.70;97.70;;;;;;4985588;28;20500;-81
2022/01/30 05:24:26;;;;;;;36.22;7.55;;;6.70;97.60;;;;;;4958937;28;20136;-81
2022/01/30 05:26:52;;;;;;;41.20;7.90;;;6.60;97.50;;;;;;4984979;28;20455;-84
2022/01/30 05:29:18;;;;;;;50.35;9.90;;;6.60;97.50;;;;;;4967541;28;20425;-82
2022/01/30 05:31:44;;;;;;;38.05;9.25;;;6.60;97.40;;;;;;4974200;28;20049;-83
2022/01/30 05:34:10;;;;;;;37.92;8.55;;;6.60;97.10;;;;;;4968116;28;20494;-82
2022/01/30 05:36:38;;;;;;;43.85;8.27;;;6.60;97.20;;;;;;4983901;28;20109;-80
2022/01/30 05:39:05;;;;;;;51.65;9.30;;;6.70;97.20;;;;;;4991793;28;20238;-79
2022/01/30 05:41:32;;;;;;;32.95;7.88;;;6.60;97.10;;;;;;4987447;28;20066;-80
2022/01/30 05:44:07;;;;;;;39.63;7.90;;;6.60;96.80;;;;;;4994959;28;20115;-80
2022/01/30 05:46:40;;;;;;;41.58;8.85;;;6.60;97.10;;;;;;5003485;28;20038;-80
2022/01/30 05:49:06;;;;;;;39.20;8.48;;;6.70;97.30;;;;;;4971417;28;20037;-84
2022/01/30 05:51:32;;;;;;;39.47;8.40;;;6.70;97.30;;;;;;4988843;28;20414;-80
2022/01/30 05:53:57;;;;;;;50.15;10.00;;;6.70;97.40;;;;;;4967538;28;20034;-80
2022/01/30 05:56:23;;;;;;;39.38;8.27;;;6.70;97.50;;;;;;4939399;28;20517;-80
2022/01/30 05:58:49;;;;;;;44.53;8.20;;;7.00;97.90;;;;;;4990624;28;20500;-80
2022/01/30 06:01:15;;;;;;;39.78;8.90;;;6.70;97.80;;;;;;4991768;28;20113;-81
2022/01/30 06:03:40;;;;;;;49.05;7.82;;;6.70;97.40;;;;;;4963625;28;20034;-81
2022/01/30 06:06:08;;;;;;;46.80;10.48;;;6.70;97.30;;;;;;5048861;28;20042;-81
2022/01/30 06:08:44;;;;;;;50.13;10.23;;;6.70;97.50;;;;;;4959053;28;20155;-80
2022/01/30 06:11:11;;;;;;;43.22;8.23;;;6.60;97.50;;;;;;4994362;28;20057;-83
2022/01/30 06:13:37;;;;;;;42.25;8.60;;;6.60;97.10;;;;;;4971809;28;20038;-80
2022/01/30 06:16:04;;;;;;;39.20;8.20;;;7.00;96.80;;;;;;4986531;28;20048;-80
2022/01/30 06:18:30;;;;;;;47.55;9.85;;;6.60;97.20;;;;;;4983213;28;20508;-80
2022/01/30 06:20:55;;;;;;;48.60;10.80;;;6.60;97.30;;;;;;4989407;28;20034;-81
2022/01/30 06:23:25;;;;;;;42.33;8.30;;;6.60;97.30;;;;;;4980146;28;20041;-81
2022/01/30 06:25:54;;;;;;;45.00;9.50;;;6.80;97.60;;;;;;4975720;28;20437;-82
2022/01/30 06:28:20;;;;;;;45.78;8.57;;;6.70;97.90;;;;;;4974493;28;20055;-81
2022/01/30 06:30:46;;;;;;;55.40;9.90;;;6.70;98.30;;;;;;4965368;28;20034;-84
2022/01/30 06:33:12;;;;;;;42.40;9.05;;;6.70;98.30;;;;;;4963721;28;20505;-80
2022/01/30 06:35:37;;;;;;;43.35;8.50;;;6.70;98.20;;;;;;4998198;28;20042;-80
2022/01/30 06:38:03;;;;;;;42.10;8.10;;;6.80;97.50;;;;;;4973968;28;20083;-80
2022/01/30 06:40:29;;;;;;;44.22;8.52;;;6.80;97.90;;;;;;4986750;28;20038;-80
2022/01/30 06:42:55;;;;;;;41.72;9.23;;;6.80;97.60;;;;;;4982239;28;20556;-80
2022/01/30 06:45:21;;;;;;;45.50;8.48;;;7.00;98.00;;;;;;4970719;28;20136;-80
2022/01/30 06:47:47;;;;;;;46.83;9.90;;;6.80;98.10;;;;;;4971525;28;20771;-84
2022/01/30 06:50:13;;;;;;;38.72;8.57;;;6.80;98.20;;;;;;4974440;28;20080;-80
2022/01/30 06:52:39;;;;;;;41.92;8.73;;;6.80;98.30;;;;;;4984271;28;20050;-81
2022/01/30 06:55:06;;;;;;;53.25;10.88;;;6.80;98.40;;;;;;4982807;28;20038;-82
2022/01/30 06:57:32;;;;;;;50.65;10.63;;;6.70;97.30;;;;;;4953343;28;20038;-80
2022/01/30 06:59:59;;;;;;;45.20;8.85;;;6.70;97.30;;;;;;4958014;28;20034;-79
2022/01/30 07:02:24;;;;;;;41.65;7.45;;;6.60;97.10;;;;;;4954801;28;20041;-80
2022/01/30 07:04:50;;;;;;;38.63;7.18;;;6.60;96.30;;;;;;4971247;28;20042;-83
2022/01/30 07:07:16;;;;;;;36.08;9.35;;;6.60;96.10;;;;;;4980989;28;20041;-84
2022/01/30 07:09:41;;;;;;;44.85;9.00;;;6.70;95.90;;;;;;4991716;28;20050;-80
2022/01/30 07:12:07;;;;;;;44.40;8.77;;;6.60;95.80;;;;;;4962233;28;20071;-80
2022/01/30 07:14:33;;;;;;;47.75;8.27;;;6.60;95.30;;;;;;4963304;28;20045;-80
2022/01/30 07:16:59;;;;;;;43.80;8.15;;;6.80;95.30;;;;;;4992306;28;20041;-80
2022/01/30 07:19:25;;;;;;;45.65;7.82;;;6.70;94.60;;;;;;4959655;28;20042;-83
2022/01/30 07:21:52;;;;;;;41.58;8.23;;;6.60;94.40;;;;;;4978954;28;20122;-81
2022/01/30 07:24:18;;;;;;;32.72;7.90;;;6.60;94.60;;;;;;5008509;28;20043;-80
2022/01/30 07:26:43;;;;;;;44.47;8.70;;;6.50;94.90;;;;;;4995126;28;20044;-83
2022/01/30 07:29:09;;;;;;;41.63;8.65;;;6.60;95.30;;;;;;4988506;28;20701;-81
2022/01/30 07:31:35;;;;;;;51.83;9.73;;;6.60;95.30;;;;;;4959589;28;20042;-81
2022/01/30 07:34:01;;;;;;;38.28;9.65;;;7.00;95.30;;;;;;4992614;28;20073;-79
2022/01/30 07:36:28;;;;;;;49.10;9.35;;;6.60;95.50;;;;;;4983076;28;20116;-79
2022/01/30 07:38:55;;;;;;;49.58;10.25;;;6.60;95.60;;;;;;4976304;28;20034;-83
2022/01/30 07:41:21;;;;;;;43.97;8.40;;;6.60;95.80;;;;;;4993654;28;20037;-81
2022/01/30 07:43:48;;;;;;;45.70;8.00;;;6.60;95.90;;;;;;4988693;28;20042;-80
2022/01/30 07:46:14;;;;;;;43.00;9.63;;;6.60;95.70;;;;;;4972825;28;20034;-80
2022/01/30 07:48:39;;;;;;;50.17;11.25;;;6.90;95.50;;;;;;4974752;28;20037;-80
2022/01/30 07:51:05;;;;;;;33.95;8.10;;;6.50;95.70;;;;;;4987698;28;20797;-80
2022/01/30 07:53:31;;;;;;;41.58;8.35;;;6.50;95.30;;;;;;4958734;28;20460;-81
2022/01/30 07:55:57;;;;;;;49.33;8.85;;;6.40;95.00;;;;;;4967799;28;20080;-81
2022/01/30 07:58:23;;;;;;;43.47;8.50;;;6.40;94.70;;;;;;4989794;28;20762;-82
2022/01/30 08:00:49;;;;;;;40.47;8.55;;;6.70;95.20;;;;;;4975037;28;20570;-85
2022/01/30 08:03:15;;;;;;;45.85;8.30;;;6.40;95.20;;;;;;4989476;28;20045;-82
2022/01/30 08:05:40;;;;;;;35.30;8.27;;;6.30;95.30;;;;;;4988873;28;20046;-82
2022/01/30 08:08:07;;;;;;;52.97;10.15;;;6.50;94.90;;;;;;5003380;28;20786;-82
2022/01/30 08:10:33;;;;;;;36.08;8.05;;;6.70;94.80;;;;;;4976925;28;20042;-82
2022/01/30 08:12:59;;;;;;;39.15;7.50;;;6.20;93.80;;;;;;4996993;28;20038;-85
2022/01/30 08:15:25;;;;;;;36.97;7.47;;;6.30;94.00;;;;;;4976001;28;20073;-86
2022/01/30 08:17:51;;;;;;;33.92;6.32;;;6.20;93.60;;;;;;4974953;28;20073;-83
2022/01/30 08:20:16;;;;;;;42.45;7.38;;;6.20;92.30;;;;;;4988756;28;20042;-81
2022/01/30 08:22:51;;;;;;;46.67;9.30;;;6.70;93.00;;;;;;4998126;28;20038;-84
2022/01/30 08:25:18;;;;;;;52.35;7.97;;;6.20;92.50;;;;;;4987578;28;20070;-84
2022/01/30 08:27:44;;;;;;;32.60;6.82;;;6.20;91.60;;;;;;4990403;28;20045;-82
2022/01/30 08:30:10;;;;;;;40.50;7.85;;;6.50;91.10;;;;;;5059082;28;20041;-81
2022/01/30 08:32:46;;;;;;;37.25;7.43;;;6.30;91.30;;;;;;4995417;28;20038;-81
2022/01/30 08:35:18;;;;;;;34.55;7.13;;;6.30;91.60;;;;;;4975495;28;20038;-80
2022/01/30 08:37:45;;;;;;;41.20;7.30;;;6.30;91.80;;;;;;4981931;28;20052;-82
2022/01/30 08:40:16;;;;;;;41.65;7.75;;;6.30;92.00;;;;;;4995610;28;20042;-82
2022/01/30 08:42:42;;;;;;;55.78;9.27;;;6.30;91.90;;;;;;4986406;28;20053;-80
2022/01/30 08:45:09;;;;;;;36.70;8.95;;;6.20;91.40;;;;;;4975288;28;20034;-82
2022/01/30 08:47:34;;;;;;;43.40;8.27;;;6.20;91.10;;;;;;4978879;28;20041;-81
2022/01/30 08:50:00;;;;;;;33.67;7.22;;;6.30;91.80;;;;;;4979253;28;20040;-82
2022/01/30 08:52:26;;;;;;;46.17;8.57;;;6.30;91.70;;;;;;4971455;28;20517;-81
2022/01/30 08:54:52;;;;;;;38.45;6.93;;;6.30;91.90;;;;;;4993565;28;20038;-81
2022/01/30 08:57:19;;;;;;;35.72;8.02;;;6.40;92.30;;;;;;4999174;28;20038;-81
2022/01/30 08:59:45;;;;;;;35.60;7.28;;;7.00;92.50;;;;;;4984247;28;20046;-80
2022/01/30 09:02:12;;;;;;;46.30;8.80;;;6.40;92.50;;;;;;4999071;28;20458;-80
2022/01/30 09:04:37;;;;;;;35.10;8.52;;;6.50;92.50;;;;;;4982518;28;20045;-80
2022/01/30 09:07:04;;;;;;;38.63;7.63;;;7.00;92.80;;;;;;5003957;28;20129;-81
2022/01/30 09:09:30;;;;;;;40.58;8.18;;;6.50;92.60;;;;;;5018648;28;20065;-80
2022/01/30 09:11:58;;;;;;;43.65;8.52;;;7.10;93.30;;;;;;4977662;28;20595;-80
2022/01/30 09:14:27;;;;;;;47.25;9.30;;;6.60;93.40;;;;;;4966251;28;20103;-81
2022/01/30 09:16:53;;;;;;;46.17;9.77;;;6.70;93.50;;;;;;4969705;28;20508;-81
2022/01/30 09:19:19;;;;;;;44.30;8.35;;;6.70;93.70;;;;;;4963011;28;20034;-80
2022/01/30 09:21:46;;;;;;;43.00;9.65;;;6.80;93.80;;;;;;4987618;28;20053;-80
2022/01/30 09:24:13;;;;;;;38.60;8.43;;;6.80;94.00;;;;;;4970843;28;20083;-80
2022/01/30 09:26:38;;;;;;;49.33;10.02;;;6.80;94.00;;;;;;5002160;28;20038;-80
2022/01/30 09:29:04;;;;;;;39.45;9.25;;;7.20;94.30;;;;;;4977723;28;20049;-81
2022/01/30 09:31:30;;;;;;;44.47;8.30;;;7.10;94.30;;;;;;5057258;28;20045;-79
2022/01/30 09:33:55;;;;;;;43.65;8.88;;;7.10;94.30;;;;;;4978613;28;20476;-79
2022/01/30 09:36:30;;;;;;;57.63;10.18;;;7.10;94.00;;;;;;4966467;28;20099;-85
2022/01/30 09:38:56;;;;;;;52.05;10.07;;;7.10;94.20;;;;;;4984170;28;20037;-83
2022/01/30 09:41:23;;;;;;;51.20;8.57;;;7.00;94.10;;;;;;4986550;28;20041;-80
2022/01/30 09:43:49;;;;;;;42.58;8.05;;;7.00;93.90;;;;;;4986153;28;20034;-81
2022/01/30 09:46:16;;;;;;;49.80;9.73;;;7.00;94.30;;;;;;4973957;28;20049;-80
2022/01/30 09:51:19;;;;;;;38.33;8.88;;;7.00;94.00;;;;;;4975429;28;20050;-63
2022/01/30 09:53:45;;;;;;;31.90;7.53;;;7.00;93.90;;;;;;4967475;28;20411;-62
2022/01/30 09:56:10;;;;;;;38.13;7.93;;;7.10;94.10;;;;;;4956837;28;20772;-65
2022/01/30 09:58:36;;;;;;;44.47;6.95;;;7.00;93.50;;;;;;4957091;28;20271;-65
2022/01/30 10:01:02;;;;;;;38.10;8.13;;;7.10;93.80;;;;;;4967907;28;20045;-62
2022/01/30 10:03:28;;;;;;;41.38;8.13;;;7.10;93.50;;;;;;4949691;28;20047;-63
2022/01/30 10:06:18;;;;;;;37.55;7.00;;;7.20;92.60;;;;;;4972209;28;20621;-64
2022/01/30 10:08:46;;;;;;;38.58;8.98;;;7.30;92.40;;;;;;4970082;28;20038;-65
2022/01/30 10:11:33;;;;;;;51.30;10.95;;;7.40;92.20;;;;;;4956489;28;20046;-63
2022/01/30 10:14:07;;;;;;;47.00;8.55;;;7.50;92.10;;;;;;4967814;28;20046;-63
2022/01/30 10:16:40;;;;;;;35.72;7.70;;;7.50;92.00;;;;;;4968180;28;20042;-65
2022/01/30 10:19:20;;;;;;;39.75;8.10;;;7.40;91.60;;;;;;4967716;28;20049;-64
2022/01/30 10:21:50;;;;;;;43.20;7.82;;;7.50;92.10;;;;;;4977658;28;20057;-63
2022/01/30 10:24:27;;;;;;;37.47;8.73;;;7.50;91.70;;;;;;4972049;28;20054;-63
2022/01/30 10:26:59;;;;;;;44.97;9.15;;;7.40;92.00;;;;;;4941167;28;20034;-63
2022/01/30 10:29:32;;;;;;;38.55;8.23;;;7.50;92.30;;;;;;4964337;28;20186;-63
2022/01/30 10:32:08;;;;;;;33.78;7.22;;;7.50;92.50;;;;;;4969913;28;20136;-63
2022/01/30 10:34:37;;;;;;;44.97;8.02;;;7.50;92.70;;;;;;4962060;28;20538;-66
2022/01/30 10:37:19;;;;;;;42.33;7.88;;;7.50;92.40;;;;;;4968334;28;20047;-64
2022/01/30 10:40:00;;;;;;;48.55;7.97;;;7.50;91.80;;;;;;4968974;28;20494;-63
2022/01/30 10:42:50;;;;;;;47.67;11.35;;;7.50;92.20;;;;;;4953168;28;20057;-65
2022/01/30 10:45:22;;;;;;;36.83;7.10;;;7.60;91.80;;;;;;4970728;28;20062;-63
2022/01/30 10:47:48;;;;;;;40.95;7.30;;;7.70;92.30;;;;;;4967402;28;20121;-63
2022/01/30 10:50:19;;;;;;;47.28;8.45;;;7.70;90.20;;;;;;4950265;28;20050;-65
2022/01/30 10:52:54;;;;;;;33.78;6.35;;;7.70;90.10;;;;;;4975256;28;20045;-64
2022/01/30 10:55:34;;;;;;;33.53;6.93;;;7.80;89.30;;;;;;4969919;28;20042;-63
2022/01/30 10:58:01;;;;;;;36.78;7.10;;;7.90;88.40;;;;;;4975314;28;20488;-63
2022/01/30 11:00:42;;;;;;;29.15;5.85;;;7.90;86.80;;;;;;4972805;28;20051;-66
2022/01/30 11:03:09;;;;;;;33.05;6.78;;;7.90;86.60;;;;;;4969706;28;20054;-64
2022/01/30 11:05:58;;;;;;;29.55;6.95;;;7.90;86.10;;;;;;4946891;28;20389;-64
2022/01/30 11:08:32;;;;;;;36.88;7.68;;;8.10;85.80;;;;;;4967908;28;20240;-67
2022/01/30 11:11:34;;;;;;;39.60;8.32;;;8.10;84.80;;;;;;4941516;28;20045;-64
2022/01/30 11:14:13;;;;;;;36.30;7.30;;;8.00;85.90;;;;;;4973940;28;21258;-66
2022/01/30 11:19:48;;;;;;;29.52;6.65;;;8.20;87.30;;;;;;5009831;28;20033;-64
2022/01/30 11:22:18;;;;;;;34.08;8.55;;;8.10;85.50;;;;;;5018025;28;20033;-64
2022/01/30 11:24:48;;;;;;;29.15;6.60;;;8.10;86.50;;;;;;4988973;28;20062;-64
2022/01/30 11:27:20;;;;;;;35.63;6.68;;;8.10;87.00;;;;;;4951617;28;20054;-64
2022/01/30 11:29:47;;;;;;;36.40;7.88;;;8.20;86.10;;;;;;4971148;28;20329;-66
2022/01/30 11:32:14;;;;;;;32.25;5.85;;;8.20;84.30;;;;;;4981907;28;20106;-64
2022/01/30 11:34:42;;;;;;;39.92;6.38;;;8.20;85.00;;;;;;4973039;28;20076;-63
2022/01/30 11:37:09;;;;;;;29.88;6.20;;;8.30;84.50;;;;;;4972239;28;20134;-64
2022/01/30 11:39:42;;;;;;;32.92;6.97;;;8.40;85.60;;;;;;4975668;28;20042;-64
2022/01/30 11:42:12;;;;;;;35.73;6.57;;;8.10;85.00;;;;;;4980141;28;20038;-66
2022/01/30 11:44:43;;;;;;;35.92;7.45;;;8.20;86.90;;;;;;4974080;28;21037;-63
2022/01/30 11:47:09;;;;;;;34.65;7.00;;;8.20;87.70;;;;;;4967505;28;20042;-64
2022/01/30 11:49:42;;;;;;;35.75;7.05;;;8.20;87.20;;;;;;5038284;28;20101;-64
2022/01/30 11:52:12;;;;;;;36.72;6.50;;;8.10;87.20;;;;;;4966815;28;20061;-64
2022/01/30 11:54:43;;;;;;;34.42;8.45;;;8.00;87.90;;;;;;4959968;28;20038;-65
2022/01/30 11:57:18;;;;;;;39.45;6.68;;;8.00;89.00;;;;;;4972784;28;20046;-63
2022/01/30 11:59:45;;;;;;;34.50;6.72;;;8.00;89.20;;;;;;4971298;28;20077;-64
2022/01/30 12:02:33;;;;;;;39.33;6.50;;;7.90;89.50;;;;;;4967866;28;20106;-64
2022/01/30 12:05:09;;;;;;;32.38;6.72;;;7.80;89.60;;;;;;4974167;28;20177;-64
2022/01/30 12:07:45;;;;;;;34.55;7.00;;;7.80;89.90;;;;;;4978120;28;20400;-64
2022/01/30 12:10:32;;;;;;;46.10;8.73;;;7.90;89.70;;;;;;4971545;28;20128;-65
2022/01/30 12:12:59;;;;;;;34.83;7.60;;;7.80;90.00;;;;;;4943076;28;20595;-63
2022/01/30 12:15:36;;;;;;;35.20;7.38;;;7.80;90.40;;;;;;4966323;28;20539;-63
2022/01/30 12:18:13;;;;;;;32.33;6.95;;;7.80;90.70;;;;;;4963324;28;20046;-63
2022/01/30 12:21:08;;;;;;;31.20;7.47;;;7.70;90.20;;;;;;4969256;28;20488;-63
2022/01/30 12:23:36;;;;;;;33.30;6.53;;;7.80;88.10;;;;;;4936528;28;20059;-64
2022/01/30 12:26:14;;;;;;;31.50;7.28;;;7.90;88.20;;;;;;4969870;28;20172;-66
2022/01/30 12:28:48;;;;;;;29.52;6.55;;;8.00;87.60;;;;;;4956965;28;20084;-64
2022/01/30 12:31:38;;;;;;;34.13;6.13;;;8.00;84.20;;;;;;4964128;28;20061;-64
2022/01/30 12:34:14;;;;;;;40.33;7.47;;;8.10;81.80;;;;;;4964455;28;20123;-64
2022/01/30 12:36:52;;;;;;;34.20;6.72;;;8.10;82.30;;;;;;4975536;28;20132;-64
2022/01/30 12:39:27;;;;;;;31.42;5.57;;;8.10;84.50;;;;;;4969410;28;20547;-65
2022/01/30 12:41:52;;;;;;;30.30;6.88;;;8.20;84.50;;;;;;4954350;28;20412;-65
2022/01/30 12:44:29;;;;;;;30.60;6.25;;;8.40;82.30;;;;;;4971990;28;20042;-65
2022/01/30 12:46:55;;;;;;;30.63;7.20;;;8.50;82.40;;;;;;4970527;28;20050;-64
2022/01/30 12:49:22;;;;;;;32.78;6.85;;;8.40;81.90;;;;;;4952094;28;20388;-64
2022/01/30 12:51:50;;;;;;;34.30;7.55;;;8.10;82.30;;;;;;4979096;28;20449;-65
2022/01/30 12:54:24;;;;;;;26.10;7.95;;;8.00;83.90;;;;;;4986567;28;20035;-66
2022/01/30 12:56:53;;;;;;;31.38;7.68;;;8.00;85.10;;;;;;4972131;28;20399;-63
2022/01/30 12:59:23;;;;;;;38.40;9.68;;;7.90;84.60;;;;;;4972695;28;20034;-63
2022/01/30 13:01:49;;;;;;;36.83;8.68;;;7.90;85.10;;;;;;4950854;28;20042;-64
2022/01/30 13:04:18;;;;;;;36.03;6.53;;;7.80;85.90;;;;;;4972019;28;20054;-66
2022/01/30 13:06:48;;;;;;;30.17;6.72;;;7.80;86.40;;;;;;4972667;28;20097;-65
2022/01/30 13:09:22;;;;;;;30.80;7.35;;;7.90;87.30;;;;;;4973220;28;20046;-63
2022/01/30 13:11:49;;;;;;;38.53;7.03;;;7.80;87.60;;;;;;4934040;28;20436;-63
2022/01/30 13:14:16;;;;;;;41.47;8.48;;;7.80;88.40;;;;;;4958039;28;20069;-63
2022/01/30 13:16:51;;;;;;;38.38;8.00;;;7.80;87.70;;;;;;4973309;28;20424;-65
2022/01/30 13:19:43;;;;;;;39.67;8.68;;;7.80;88.70;;;;;;4967044;28;20091;-63
2022/01/30 13:22:11;;;;;;;35.67;7.80;;;7.80;88.70;;;;;;4967286;28;20487;-63
2022/01/30 13:24:37;;;;;;;41.15;8.32;;;7.70;88.80;;;;;;4980077;28;20327;-66
2022/01/30 13:27:07;;;;;;;24.58;5.82;;;7.70;88.80;;;;;;4956673;28;20186;-63
2022/01/30 13:29:35;;;;;;;38.03;7.28;;;7.60;89.40;;;;;;4965823;28;20061;-64
2022/01/30 13:32:10;;;;;;;30.58;7.65;;;7.50;89.40;;;;;;4970092;28;20389;-64
2022/01/30 13:34:37;;;;;;;43.33;8.32;;;7.50;90.00;;;;;;4958509;28;20076;-64
2022/01/30 13:37:10;;;;;;;38.15;8.35;;;7.50;90.20;;;;;;4983098;28;20518;-66
2022/01/30 13:39:40;;;;;;;46.92;11.60;;;7.50;90.50;;;;;;4964384;28;20225;-64
2022/01/30 13:47:53;;;;;;;42.92;9.93;;;7.30;90.80;;;;;;4981562;28;20048;-63
2022/01/30 13:50:21;;;;;;;36.80;8.43;;;7.40;91.10;;;;;;4970431;28;20034;-63
2022/01/30 13:52:47;;;;;;;41.53;7.63;;;7.40;90.80;;;;;;4979762;28;20050;-65
2022/01/30 13:55:13;;;;;;;34.50;7.38;;;7.40;89.90;;;;;;4975046;28;20043;-63
2022/01/30 13:57:42;;;;;;;37.10;7.90;;;7.60;90.70;;;;;;4977666;28;20127;-64
2022/01/30 14:00:18;;;;;;;34.47;8.25;;;7.50;90.20;;;;;;4956902;28;20041;-63
2022/01/30 14:02:56;;;;;;;29.98;6.70;;;7.50;90.50;;;;;;4970139;28;20201;-63